Time;durP1;ratioP1;P1;durP2;ratioP2;P2;SDS_P1;SDS_P2;PMS_P1;PMS_P2;Temp;Humidity;BMP_temperature;BMP_pressure;BME280_temperature;BME280_humidity;BME280_pressure;Samples;Min_cycle;Max_cycle;Signal;HPM_P1;HPM_P2
2022/12/10 00:01:30;;;;;;;;;;;8.10;99.90;;;;;;5092186;28;19912;-75
2022/12/10 00:03:56;;;;;;;;;;;8.10;99.90;;;;;;5093045;28;19979;-76
2022/12/10 00:06:23;;;;;;;;;;;8.10;99.90;;;;;;5092166;28;19999;-75
2022/12/10 00:08:48;;;;;;;;;;;8.10;99.90;;;;;;5092973;28;19998;-75
2022/12/10 00:11:15;;;;;;;;;;;8.00;99.90;;;;;;5090604;28;20387;-75
2022/12/10 00:13:41;;;;;;;;;;;8.10;99.90;;;;;;5091393;28;19961;-75
2022/12/10 00:16:07;;;;;;;;;;;8.00;99.90;;;;;;5093052;28;19912;-75
2022/12/10 00:18:33;;;;;;;;;;;8.10;99.90;;;;;;5093125;28;19908;-76
2022/12/10 00:21:01;;;;;;;;;;;8.10;99.90;;;;;;5093478;28;19908;-75
2022/12/10 00:23:27;;;;;;;;;;;8.10;99.90;;;;;;5092910;28;19981;-76
2022/12/10 00:25:52;;;;;;;;;;;8.20;99.90;;;;;;5090891;28;20376;-76
2022/12/10 00:28:18;;;;;;;;;;;8.20;99.90;;;;;;5093704;28;19937;-75
2022/12/10 00:30:43;;;;;;;;;;;8.20;99.90;;;;;;5093135;28;19912;-76
2022/12/10 00:33:09;;;;;;;;;;;8.10;99.90;;;;;;5093056;28;19934;-74
2022/12/10 00:35:35;;;;;;;;;;;8.10;99.90;;;;;;5091780;28;19913;-75
2022/12/10 00:38:01;;;;;;;;;;;8.00;99.90;;;;;;5089688;28;20397;-76
2022/12/10 00:40:26;;;;;;;;;;;8.10;99.90;;;;;;5089939;28;19951;-76
2022/12/10 00:42:52;;;;;;;;;;;8.00;99.90;;;;;;5088394;28;19920;-75
2022/12/10 00:45:17;;;;;;;;;;;8.10;99.90;;;;;;5088437;28;19963;-76
2022/12/10 00:47:43;;;;;;;;;;;8.00;99.90;;;;;;5088790;28;20006;-75
2022/12/10 00:50:08;;;;;;;;;;;8.00;99.90;;;;;;5089211;28;19912;-76
2022/12/10 00:52:34;;;;;;;;;;;8.00;99.90;;;;;;5090513;28;19920;-75
2022/12/10 00:54:59;;;;;;;;;;;8.00;99.90;;;;;;5088745;28;19916;-75
2022/12/10 00:57:25;;;;;;;;;;;8.00;99.90;;;;;;5088919;28;19930;-75
2022/12/10 00:59:50;;;;;;;;;;;8.00;99.90;;;;;;5090516;28;19974;-75
2022/12/10 01:02:16;;;;;;;;;;;8.00;99.90;;;;;;5088975;28;19916;-76
2022/12/10 01:04:41;;;;;;;;;;;8.00;99.90;;;;;;5089250;28;19993;-75
2022/12/10 01:07:08;;;;;;;;;;;8.00;99.90;;;;;;5088934;28;19913;-76
2022/12/10 01:09:34;;;;;;;;;;;8.00;99.90;;;;;;5088466;28;19919;-74
2022/12/10 01:12:01;;;;;;;;;;;8.00;99.90;;;;;;5088770;28;20277;-75
2022/12/10 01:14:28;;;;;;;;;;;8.00;99.90;;;;;;5089309;28;20385;-75
2022/12/10 01:16:54;;;;;;;;;;;8.00;99.90;;;;;;5089277;28;19912;-75
2022/12/10 01:19:20;;;;;;;;;;;8.00;99.90;;;;;;5090220;28;19927;-77
2022/12/10 01:21:49;;;;;;;;;;;8.00;99.90;;;;;;5089258;28;19919;-75
2022/12/10 01:24:14;;;;;;;;;;;8.00;99.90;;;;;;5090536;28;20371;-75
2022/12/10 01:26:40;;;;;;;;;;;8.00;99.90;;;;;;5090560;28;19918;-75
2022/12/10 01:29:05;;;;;;;;;;;8.00;99.90;;;;;;5089888;28;19912;-76
2022/12/10 01:31:32;;;;;;;;;;;8.00;99.90;;;;;;5090705;28;20591;-76
2022/12/10 01:33:58;;;;;;;;;;;8.00;99.90;;;;;;5091421;28;19908;-76
2022/12/10 01:36:26;;;;;;;;;;;8.00;99.90;;;;;;5088544;28;20019;-76
2022/12/10 01:38:52;;;;;;;;;;;8.00;99.90;;;;;;5089925;28;19916;-75
2022/12/10 01:41:19;;;;;;;;;;;8.00;99.90;;;;;;5089298;28;20067;-75
2022/12/10 01:44:05;;;;;;;;;;;7.90;99.90;;;;;;5087952;28;19916;-75
2022/12/10 01:46:31;;;;;;;;;;;7.90;99.90;;;;;;5090074;28;19958;-75
2022/12/10 01:48:58;;;;;;;;;;;7.90;99.90;;;;;;5090259;28;19923;-76
2022/12/10 01:51:24;;;;;;;;;;;7.90;99.90;;;;;;5089847;28;19959;-75
2022/12/10 01:53:50;;;;;;;;;;;7.90;99.90;;;;;;5089479;28;19947;-75
2022/12/10 01:56:17;;;;;;;;;;;7.90;99.90;;;;;;5087819;28;20407;-75
2022/12/10 01:58:43;;;;;;;;;;;7.90;99.90;;;;;;5089578;28;20003;-74
2022/12/10 02:01:27;;;;;;;;;;;8.00;99.90;;;;;;5088145;28;19934;-76
2022/12/10 02:03:55;;;;;;;;;;;7.90;99.90;;;;;;5090087;28;20462;-75
2022/12/10 02:06:40;;;;;;;;;;;7.90;99.90;;;;;;5088703;28;19916;-75
2022/12/10 02:09:13;;;;;;;;;;;8.00;99.90;;;;;;5088464;28;19909;-75
2022/12/10 02:11:38;;;;;;;;;;;8.00;99.90;;;;;;5088698;28;19908;-75
2022/12/10 02:14:09;;;;;;;;;;;8.00;99.90;;;;;;5089764;28;20031;-75
2022/12/10 02:16:37;;;;;;;;;;;8.00;99.90;;;;;;5089957;28;20007;-75
2022/12/10 02:19:18;;;;;;;;;;;8.00;99.90;;;;;;5088789;28;19981;-75
2022/12/10 02:21:46;;;;;;;;;;;8.00;99.90;;;;;;5088883;28;20133;-77
2022/12/10 02:24:15;;;;;;;;;;;8.00;99.90;;;;;;5087660;28;20020;-75
2022/12/10 02:26:43;;;;;;;;;;;8.00;99.90;;;;;;5089043;28;20010;-75
2022/12/10 02:29:12;;;;;;;;;;;8.00;99.90;;;;;;5088362;28;20288;-75
2022/12/10 02:31:40;;;;;;;;;;;8.00;99.90;;;;;;5088466;28;19912;-75
2022/12/10 02:34:07;;;;;;;;;;;8.00;99.90;;;;;;5090499;28;20361;-75
2022/12/10 02:36:35;;;;;;;;;;;7.90;99.90;;;;;;5090624;28;19912;-75
2022/12/10 02:39:01;;;;;;;;;;;7.90;99.90;;;;;;5089923;28;19912;-75
2022/12/10 02:41:32;;;;;;;;;;;7.90;99.90;;;;;;5088931;28;20274;-75
2022/12/10 02:43:59;;;;;;;;;;;7.90;99.90;;;;;;5090064;28;20690;-76
2022/12/10 02:46:28;;;;;;;;;;;7.90;99.90;;;;;;5079316;28;19952;-75
2022/12/10 02:48:54;;;;;;;;;;;7.90;99.90;;;;;;5070739;28;19913;-75
2022/12/10 02:51:19;;;;;;;;;;;7.90;99.90;;;;;;5070706;28;19960;-76
2022/12/10 02:53:45;;;;;;;;;;;7.90;99.90;;;;;;5070264;28;19916;-75
2022/12/10 02:56:22;;;;;;;;;;;7.90;99.90;;;;;;5070250;28;19920;-75
2022/12/10 02:58:48;;;;;;;;;;;7.90;99.90;;;;;;5068802;28;19979;-76
2022/12/10 03:01:22;;;;;;;;;;;7.90;99.90;;;;;;5070880;28;19917;-75
2022/12/10 03:04:01;;;;;;;;;;;7.90;99.90;;;;;;5067905;28;19920;-75
2022/12/10 03:06:26;;;;;;;;;;;7.80;99.90;;;;;;5067018;28;20435;-75
2022/12/10 03:08:56;;;;;;;;;;;7.80;99.90;;;;;;5066906;28;19912;-75
2022/12/10 03:11:22;;;;;;;;;;;7.70;99.90;;;;;;5072289;28;19942;-75
2022/12/10 03:13:48;;;;;;;;;;;7.80;99.90;;;;;;5071922;28;19998;-75
2022/12/10 03:16:14;;;;;;;;;;;7.70;99.90;;;;;;5071111;28;19919;-77
2022/12/10 03:18:41;;;;;;;;;;;7.60;99.90;;;;;;5071722;28;19913;-75
2022/12/10 03:21:07;;;;;;;;;;;7.60;99.90;;;;;;5070337;28;19919;-75
2022/12/10 03:23:34;;;;;;;;;;;7.60;99.90;;;;;;5069194;28;19920;-76
2022/12/10 03:26:00;;;;;;;;;;;7.60;99.90;;;;;;5071832;28;19916;-75
2022/12/10 03:28:26;;;;;;;;;;;7.60;99.90;;;;;;5071489;28;19915;-75
2022/12/10 03:30:52;;;;;;;;;;;7.50;99.90;;;;;;5069992;28;19966;-75
2022/12/10 03:33:18;;;;;;;;;;;7.50;99.90;;;;;;5069908;28;19951;-77
2022/12/10 03:35:44;;;;;;;;;;;7.50;99.90;;;;;;5071935;28;19951;-75
2022/12/10 03:38:10;;;;;;;;;;;7.50;99.90;;;;;;5071172;28;19913;-76
2022/12/10 03:40:36;;;;;;;;;;;7.40;99.90;;;;;;5071706;28;19909;-75
2022/12/10 03:43:01;;;;;;;;;;;7.40;99.90;;;;;;5069752;28;19946;-75
2022/12/10 03:45:28;;;;;;;;;;;7.40;99.90;;;;;;5069647;28;19913;-75
2022/12/10 03:47:53;;;;;;;;;;;7.40;99.90;;;;;;5070171;28;20387;-76
2022/12/10 03:50:19;;;;;;;;;;;7.40;99.90;;;;;;5071287;28;19912;-75
2022/12/10 03:52:44;;;;;;;;;;;7.40;99.90;;;;;;5071992;28;19912;-75
2022/12/10 03:55:10;;;;;;;;;;;7.40;99.90;;;;;;5071289;28;19916;-74
2022/12/10 03:57:35;;;;;;;;;;;7.40;99.90;;;;;;5070047;28;19912;-75
2022/12/10 04:00:02;;;;;;;;;;;7.40;99.90;;;;;;5069880;28;19964;-75
2022/12/10 04:02:28;;;;;;;;;;;7.30;99.90;;;;;;5071988;28;19920;-75
2022/12/10 04:04:53;;;;;;;;;;;7.40;99.90;;;;;;5070029;28;19969;-75
2022/12/10 04:07:19;;;;;;;;;;;7.30;99.90;;;;;;5071100;28;19919;-75
2022/12/10 04:09:44;;;;;;;;;;;7.30;99.90;;;;;;5069546;28;19913;-75
2022/12/10 04:12:10;;;;;;;;;;;7.30;99.90;;;;;;5069519;28;19912;-76
2022/12/10 04:17:20;;;;;;;;;;;7.20;99.90;;;;;;5070635;28;19958;-76
2022/12/10 04:19:45;;;;;;;;;;;7.20;99.90;;;;;;5069772;28;19913;-76
2022/12/10 04:27:39;;;;;;;;;;;7.10;99.90;;;;;;5071746;28;19954;-76
2022/12/10 04:30:07;;;;;;;;;;;7.10;99.90;;;;;;5070316;28;19955;-75
2022/12/10 04:32:32;;;;;;;;;;;7.10;99.90;;;;;;5071587;28;20014;-76
2022/12/10 04:34:58;;;;;;;;;;;7.10;99.90;;;;;;5076603;28;20427;-76
2022/12/10 04:37:23;;;;;;;;;;;7.10;99.90;;;;;;5090002;28;19908;-75
2022/12/10 04:39:49;;;;;;;;;;;7.10;99.90;;;;;;5091203;28;19912;-75
2022/12/10 04:42:15;;;;;;;;;;;7.00;99.90;;;;;;5091440;28;20372;-76
2022/12/10 04:44:40;;;;;;;;;;;7.00;99.90;;;;;;5080624;28;19995;-76
2022/12/10 04:47:07;;;;;;;;;;;6.90;99.90;;;;;;5070891;28;19909;-76
2022/12/10 04:49:32;;;;;;;;;;;6.90;99.90;;;;;;5072307;28;20432;-76
2022/12/10 04:51:58;;;;;;;;;;;6.80;99.90;;;;;;5071813;28;20046;-76
2022/12/10 04:54:24;;;;;;;;;;;6.80;99.90;;;;;;5072186;28;19971;-76
2022/12/10 04:56:49;;;;;;;;;;;6.80;99.90;;;;;;5070422;28;19962;-76
2022/12/10 04:59:15;;;;;;;;;;;6.80;99.90;;;;;;5071762;28;19980;-76
2022/12/10 05:01:41;;;;;;;;;;;6.80;99.90;;;;;;5072653;28;19917;-76
2022/12/10 05:04:08;;;;;;;;;;;6.80;99.90;;;;;;5072290;28;19917;-75
2022/12/10 05:06:34;;;;;;;;;;;6.70;99.90;;;;;;5070977;28;20003;-75
2022/12/10 05:08:59;;;;;;;;;;;6.70;99.90;;;;;;5071257;28;19952;-77
2022/12/10 05:11:26;;;;;;;;;;;6.70;99.90;;;;;;5071984;28;19919;-77
2022/12/10 05:13:53;;;;;;;;;;;6.60;99.90;;;;;;5070849;28;20027;-78
2022/12/10 05:16:19;;;;;;;;;;;6.60;99.90;;;;;;5071977;28;19912;-76
2022/12/10 05:18:45;;;;;;;;;;;6.60;99.90;;;;;;5072670;28;19913;-75
2022/12/10 05:21:12;;;;;;;;;;;6.50;99.90;;;;;;5072619;28;20459;-75
2022/12/10 05:23:38;;;;;;;;;;;6.50;99.90;;;;;;5070478;28;19970;-76
2022/12/10 05:26:08;;;;;;;;;;;6.50;99.90;;;;;;5074056;28;19926;-77
2022/12/10 05:28:44;;;;;;;;;;;6.50;99.90;;;;;;5072658;28;19908;-76
2022/12/10 05:31:28;;;;;;;;;;;6.50;99.90;;;;;;5069258;28;19919;-76
2022/12/10 05:33:54;;;;;;;;;;;6.50;99.90;;;;;;5067517;28;20662;-76
2022/12/10 05:36:21;;;;;;;;;;;6.60;99.90;;;;;;5069100;28;19913;-77
2022/12/10 05:38:46;;;;;;;;;;;6.60;99.90;;;;;;5067019;28;19908;-76
2022/12/10 05:41:14;;;;;;;;;;;6.60;99.90;;;;;;5066984;28;19966;-76
2022/12/10 05:43:39;;;;;;;;;;;6.60;99.90;;;;;;5067205;28;20301;-76
2022/12/10 05:46:06;;;;;;;;;;;6.50;99.90;;;;;;5067198;28;19912;-76
2022/12/10 05:48:33;;;;;;;;;;;6.50;99.90;;;;;;5068558;28;20046;-76
2022/12/10 05:51:02;;;;;;;;;;;6.50;99.90;;;;;;5069172;28;20038;-77
2022/12/10 05:53:28;;;;;;;;;;;6.50;99.90;;;;;;5066869;28;19913;-76
2022/12/10 05:55:59;;;;;;;;;;;6.50;99.90;;;;;;5068423;28;19919;-76
2022/12/10 05:58:26;;;;;;;;;;;6.50;99.90;;;;;;5067150;28;19919;-76
2022/12/10 06:00:51;;;;;;;;;;;6.40;99.90;;;;;;5068621;28;19935;-76
2022/12/10 06:03:17;;;;;;;;;;;6.40;99.90;;;;;;5067232;28;19924;-77
2022/12/10 06:05:42;;;;;;;;;;;6.40;99.90;;;;;;5067880;28;19913;-76
2022/12/10 06:08:08;;;;;;;;;;;6.40;99.90;;;;;;5067725;28;19909;-76
2022/12/10 06:10:34;;;;;;;;;;;6.30;99.90;;;;;;5068046;28;19916;-76
2022/12/10 06:13:00;;;;;;;;;;;6.30;99.90;;;;;;5067212;28;19943;-77
2022/12/10 06:15:26;;;;;;;;;;;6.30;99.90;;;;;;5067459;28;19958;-76
2022/12/10 06:17:51;;;;;;;;;;;6.30;99.90;;;;;;5067001;28;19962;-76
2022/12/10 06:20:17;;;;;;;;;;;6.30;99.90;;;;;;5067510;28;19908;-76
2022/12/10 06:22:42;;;;;;;;;;;6.20;99.90;;;;;;5067152;28;20011;-76
2022/12/10 06:25:08;;;;;;;;;;;6.20;99.90;;;;;;5068833;28;19999;-78
2022/12/10 06:27:33;;;;;;;;;;;6.20;99.90;;;;;;5067817;28;19918;-77
2022/12/10 06:29:59;;;;;;;;;;;6.20;99.90;;;;;;5067761;28;20003;-77
2022/12/10 06:32:24;;;;;;;;;;;6.30;99.90;;;;;;5066823;28;20836;-78
2022/12/10 06:34:50;;;;;;;;;;;6.20;99.90;;;;;;5068220;28;20376;-78
2022/12/10 06:37:15;;;;;;;;;;;6.20;99.90;;;;;;5068844;28;20284;-75
2022/12/10 06:39:41;;;;;;;;;;;6.10;99.90;;;;;;5067391;28;20393;-78
2022/12/10 06:42:08;;;;;;;;;;;6.10;99.90;;;;;;5069230;28;19913;-77
2022/12/10 06:44:33;;;;;;;;;;;6.10;99.90;;;;;;5071136;28;19924;-78
2022/12/10 06:46:59;;;;;;;;;;;6.00;99.90;;;;;;5072486;28;19909;-78
2022/12/10 06:49:24;;;;;;;;;;;6.00;99.90;;;;;;5071374;28;19920;-77
2022/12/10 06:51:50;;;;;;;;;;;6.10;99.90;;;;;;5071467;28;19909;-77
2022/12/10 06:54:15;;;;;;;;;;;6.00;99.90;;;;;;5073582;28;19912;-77
2022/12/10 06:56:41;;;;;;;;;;;6.00;99.90;;;;;;5071660;28;19960;-78
2022/12/10 06:59:06;;;;;;;;;;;6.00;99.90;;;;;;5072851;28;20419;-77
2022/12/10 07:01:32;;;;;;;;;;;6.10;99.90;;;;;;5072431;28;20280;-76
2022/12/10 07:03:57;;;;;;;;;;;6.10;99.90;;;;;;5072895;28;20293;-78
2022/12/10 07:06:24;;;;;;;;;;;6.10;99.90;;;;;;5071675;28;19912;-78
2022/12/10 07:08:49;;;;;;;;;;;6.10;99.90;;;;;;5071847;28;20027;-77
2022/12/10 07:11:16;;;;;;;;;;;6.10;99.90;;;;;;5071947;28;19996;-78
2022/12/10 07:13:41;;;;;;;;;;;6.20;99.90;;;;;;5073112;28;19925;-77
2022/12/10 07:16:27;;;;;;;;;;;6.20;99.90;;;;;;5072153;28;19915;-77
2022/12/10 07:18:54;;;;;;;;;;;6.20;99.90;;;;;;5072257;28;19935;-77
2022/12/10 07:21:21;;;;;;;;;;;6.20;99.90;;;;;;5072135;28;19912;-77
2022/12/10 07:23:47;;;;;;;;;;;6.20;99.90;;;;;;5073774;28;19920;-78
2022/12/10 07:26:13;;;;;;;;;;;6.20;99.90;;;;;;5074416;28;19962;-78
2022/12/10 07:28:38;;;;;;;;;;;6.20;99.90;;;;;;5070640;28;19920;-77
2022/12/10 07:31:05;;;;;;;;;;;6.10;99.90;;;;;;5073566;28;20218;-77
2022/12/10 07:33:30;;;;;;;;;;;6.10;99.90;;;;;;5071507;28;20327;-78
2022/12/10 07:35:56;;;;;;;;;;;6.10;99.90;;;;;;5071860;28;19913;-77
2022/12/10 07:38:22;;;;;;;;;;;6.10;99.90;;;;;;5072699;28;19909;-78
2022/12/10 07:40:48;;;;;;;;;;;6.20;99.90;;;;;;5073912;28;19920;-78
2022/12/10 07:43:14;;;;;;;;;;;6.20;99.90;;;;;;5071473;28;19920;-77
2022/12/10 07:45:39;;;;;;;;;;;6.30;99.90;;;;;;5071295;28;19909;-77
2022/12/10 07:48:05;;;;;;;;;;;6.30;99.90;;;;;;5073681;28;19908;-77
2022/12/10 07:50:30;;;;;;;;;;;6.40;99.90;;;;;;5073030;28;19909;-78
2022/12/10 07:52:56;;;;;;;;;;;6.40;99.90;;;;;;5075590;28;19913;-77
2022/12/10 07:55:21;;;;;;;;;;;6.50;99.90;;;;;;5075684;28;20343;-78
2022/12/10 07:57:47;;;;;;;;;;;6.40;99.90;;;;;;5070586;28;19962;-78
2022/12/10 08:00:12;;;;;;;;;;;6.40;99.90;;;;;;5069748;28;20311;-77
2022/12/10 08:02:38;;;;;;;;;;;6.40;99.90;;;;;;5069116;28;20328;-77
2022/12/10 08:05:04;;;;;;;;;;;6.40;99.90;;;;;;5070625;28;19939;-77
2022/12/10 08:07:29;;;;;;;;;;;6.40;99.90;;;;;;5069316;28;19912;-78
2022/12/10 08:09:55;;;;;;;;;;;6.40;99.90;;;;;;5069922;28;19913;-77
2022/12/10 08:12:20;;;;;;;;;;;6.30;99.90;;;;;;5070375;28;20396;-77
2022/12/10 08:14:46;;;;;;;;;;;6.40;99.90;;;;;;5070294;28;20369;-78
2022/12/10 08:17:11;;;;;;;;;;;6.40;99.90;;;;;;5070954;28;19934;-77
2022/12/10 08:19:37;;;;;;;;;;;6.40;99.90;;;;;;5069487;28;20685;-77
2022/12/10 08:22:02;;;;;;;;;;;6.50;99.90;;;;;;5070776;28;20277;-77
2022/12/10 08:24:28;;;;;;;;;;;6.50;99.90;;;;;;5070337;28;20392;-77
2022/12/10 08:26:54;;;;;;;;;;;6.60;99.90;;;;;;5071346;28;20015;-77
2022/12/10 08:29:19;;;;;;;;;;;6.60;99.90;;;;;;5071077;28;20004;-77
2022/12/10 08:31:45;;;;;;;;;;;6.60;99.90;;;;;;5072095;28;19958;-77
2022/12/10 08:34:14;;;;;;;;;;;6.60;99.90;;;;;;5070129;28;19970;-78
2022/12/10 08:36:39;;;;;;;;;;;6.60;99.90;;;;;;5071346;28;19908;-77
2022/12/10 08:39:05;;;;;;;;;;;6.60;99.90;;;;;;5071199;28;19908;-77
2022/12/10 08:41:31;;;;;;;;;;;6.60;99.90;;;;;;5069719;28;19917;-77
2022/12/10 08:43:56;;;;;;;;;;;6.60;99.90;;;;;;5071411;28;19916;-77
2022/12/10 08:46:22;;;;;;;;;;;6.60;99.90;;;;;;5070353;28;19915;-78
2022/12/10 08:48:48;;;;;;;;;;;6.60;99.90;;;;;;5070469;28;19919;-76
2022/12/10 08:51:15;;;;;;;;;;;6.60;99.90;;;;;;5069603;28;20292;-78
2022/12/10 08:53:40;;;;;;;;;;;6.60;99.90;;;;;;5071158;28;19974;-77
2022/12/10 08:56:06;;;;;;;;;;;6.70;99.90;;;;;;5070038;28;20396;-77
2022/12/10 08:58:32;;;;;;;;;;;6.60;99.90;;;;;;5071200;28;19913;-77
2022/12/10 09:00:58;;;;;;;;;;;6.70;99.90;;;;;;5069839;28;20011;-78
2022/12/10 09:03:24;;;;;;;;;;;6.70;99.90;;;;;;5071789;28;19956;-77
2022/12/10 09:05:49;;;;;;;;;;;6.70;99.90;;;;;;5070842;28;19954;-78
2022/12/10 09:08:15;;;;;;;;;;;6.70;99.90;;;;;;5071386;28;20371;-77
2022/12/10 09:10:41;;;;;;;;;;;6.70;99.90;;;;;;5071887;28;19919;-77
2022/12/10 09:13:07;;;;;;;;;;;6.80;99.90;;;;;;5070416;28;19912;-78
2022/12/10 09:15:32;;;;;;;;;;;6.80;99.90;;;;;;5071822;28;19915;-77
2022/12/10 09:17:58;;;;;;;;;;;6.80;99.90;;;;;;5070644;28;19916;-78
2022/12/10 09:20:24;;;;;;;;;;;6.90;99.90;;;;;;5070681;28;19909;-77
2022/12/10 09:22:49;;;;;;;;;;;6.90;99.90;;;;;;5070309;28;19917;-77
2022/12/10 09:25:16;;;;;;;;;;;7.00;99.90;;;;;;5071549;28;19919;-79
2022/12/10 09:27:43;;;;;;;;;;;7.00;99.90;;;;;;5070081;28;20338;-77
2022/12/10 09:30:09;;;;;;;;;;;7.00;99.90;;;;;;5072091;28;20003;-77
2022/12/10 09:32:34;;;;;;;;;;;7.10;99.90;;;;;;5070080;28;19920;-77
2022/12/10 09:35:00;;;;;;;;;;;7.10;99.90;;;;;;5069683;28;19909;-77
2022/12/10 09:37:25;;;;;;;;;;;7.10;99.90;;;;;;5069901;28;19912;-78
2022/12/10 09:39:51;;;;;;;;;;;7.10;99.90;;;;;;5070318;28;20477;-78
2022/12/10 09:42:29;;;;;;;;;;;7.10;99.90;;;;;;5069747;28;19919;-78
2022/12/10 09:44:57;;;;;;;;;;;7.20;99.90;;;;;;5071530;28;19914;-78
2022/12/10 09:47:35;;;;;;;;;;;7.10;99.90;;;;;;5070351;28;19920;-77
2022/12/10 09:50:16;;;;;;;;;;;7.10;99.90;;;;;;5070600;28;19993;-77
2022/12/10 09:52:43;;;;;;;;;;;7.10;99.90;;;;;;5071845;28;20301;-77
2022/12/10 09:55:31;;;;;;;;;;;7.10;99.90;;;;;;5070268;28;19912;-77
2022/12/10 09:57:57;;;;;;;;;;;7.20;99.90;;;;;;5071035;28;20450;-78
2022/12/10 10:00:26;;;;;;;;;;;7.20;99.90;;;;;;5072073;28;20442;-77
2022/12/10 10:02:54;;;;;;;;;;;7.20;99.90;;;;;;5071373;28;20278;-77
2022/12/10 10:05:24;;;;;;;;;;;7.20;99.90;;;;;;5071983;28;19989;-78
2022/12/10 10:07:54;;;;;;;;;;;7.20;99.90;;;;;;5070764;28;19912;-77
2022/12/10 10:10:26;;;;;;;;;;;7.20;99.90;;;;;;5072428;28;19959;-77
2022/12/10 10:12:53;;;;;;;;;;;7.20;99.90;;;;;;5070826;28;19916;-77
2022/12/10 10:15:23;;;;;;;;;;;7.20;99.90;;;;;;5072594;28;19913;-77
2022/12/10 10:17:52;;;;;;;;;;;7.20;99.90;;;;;;5072601;28;20362;-77
2022/12/10 10:20:18;;;;;;;;;;;7.20;99.90;;;;;;5071462;28;19916;-78
2022/12/10 10:22:43;;;;;;;;;;;7.20;99.90;;;;;;5072558;28;19916;-77
2022/12/10 10:25:16;;;;;;;;;;;7.20;99.90;;;;;;5069636;28;19920;-77
2022/12/10 10:27:42;;;;;;;;;;;7.20;99.90;;;;;;5069145;28;19912;-77
2022/12/10 10:30:13;;;;;;;;;;;7.20;99.90;;;;;;5067853;28;19954;-77
2022/12/10 10:32:38;;;;;;;;;;;7.20;99.90;;;;;;5068250;28;20408;-77
2022/12/10 10:35:04;;;;;;;;;;;7.20;99.90;;;;;;5067114;28;19908;-77
2022/12/10 10:37:38;;;;;;;;;;;7.20;99.90;;;;;;5067954;28;20369;-77
2022/12/10 10:40:04;;;;;;;;;;;7.30;99.90;;;;;;5068986;28;19948;-77
2022/12/10 10:42:37;;;;;;;;;;;7.20;99.90;;;;;;5067882;28;19963;-77
2022/12/10 10:45:04;;;;;;;;;;;7.20;99.90;;;;;;5068261;28;19944;-77
2022/12/10 10:47:34;;;;;;;;;;;7.20;99.90;;;;;;5069819;28;19912;-77
2022/12/10 10:50:00;;;;;;;;;;;7.20;99.90;;;;;;5067025;28;19916;-78
2022/12/10 10:52:30;;;;;;;;;;;7.20;99.90;;;;;;5066752;28;19915;-78
2022/12/10 10:54:55;;;;;;;;;;;7.20;99.90;;;;;;5069017;28;19993;-77
2022/12/10 10:57:28;;;;;;;;;;;7.30;99.90;;;;;;5068532;28;20569;-77
2022/12/10 10:59:56;;;;;;;;;;;7.30;99.90;;;;;;5067613;28;19960;-77
2022/12/10 11:02:28;;;;;;;;;;;7.40;99.90;;;;;;5068835;28;19916;-77
2022/12/10 11:04:55;;;;;;;;;;;7.50;99.90;;;;;;5066452;28;20453;-77
2022/12/10 11:07:30;;;;;;;;;;;7.70;99.90;;;;;;5067835;28;19909;-77
2022/12/10 11:09:55;;;;;;;;;;;7.70;99.90;;;;;;5067672;28;19960;-77
2022/12/10 11:12:29;;;;;;;;;;;7.80;99.90;;;;;;5069856;28;19963;-76
2022/12/10 11:14:55;;;;;;;;;;;7.80;99.90;;;;;;5069695;28;19962;-77
2022/12/10 11:17:21;;;;;;;;;;;7.90;99.90;;;;;;5067921;28;19948;-77
2022/12/10 11:19:56;;;;;;;;;;;7.90;99.90;;;;;;5068034;28;20340;-77
2022/12/10 11:22:23;;;;;;;;;;;7.90;99.90;;;;;;5067586;28;19921;-78
2022/12/10 11:24:48;;;;;;;;;;;7.90;99.90;;;;;;5068626;28;19913;-77
2022/12/10 11:27:23;;;;;;;;;;;7.80;99.90;;;;;;5068518;28;19915;-78
2022/12/10 11:29:56;;;;;;;;;;;7.80;99.90;;;;;;5068423;28;19913;-77
2022/12/10 11:32:24;;;;;;;;;;;7.70;99.90;;;;;;5073384;28;19908;-77
2022/12/10 11:35:02;;;;;;;;;;;7.60;99.90;;;;;;5073470;28;19912;-77
2022/12/10 11:37:31;;;;;;;;;;;7.60;99.90;;;;;;5073474;28;19908;-77
2022/12/10 11:39:59;;;;;;;;;;;7.60;99.90;;;;;;5071986;28;19987;-77
2022/12/10 11:42:43;;;;;;;;;;;7.50;99.90;;;;;;5073185;28;19932;-77
2022/12/10 11:45:19;;;;;;;;;;;7.60;99.90;;;;;;5071486;28;19912;-76
2022/12/10 11:47:51;;;;;;;;;;;7.60;99.90;;;;;;5073456;28;19915;-77
2022/12/10 11:50:16;;;;;;;;;;;7.60;99.90;;;;;;5073659;28;19913;-77
2022/12/10 11:52:42;;;;;;;;;;;7.60;99.90;;;;;;5071093;28;20397;-77
2022/12/10 11:55:19;;;;;;;;;;;7.60;99.90;;;;;;5070522;28;19920;-77
2022/12/10 11:58:03;;;;;;;;;;;7.60;99.90;;;;;;5072017;28;19952;-77
2022/12/10 12:00:38;;;;;;;;;;;7.60;99.90;;;;;;5071296;28;20000;-77
2022/12/10 12:03:14;;;;;;;;;;;7.50;99.90;;;;;;5070005;28;19917;-77
2022/12/10 12:05:51;;;;;;;;;;;7.50;99.90;;;;;;5070847;28;19938;-77
2022/12/10 12:08:20;;;;;;;;;;;7.50;99.90;;;;;;5069586;28;20003;-77
2022/12/10 12:11:04;;;;;;;;;;;7.50;99.90;;;;;;5070693;28;19913;-77
2022/12/10 12:13:33;;;;;;;;;;;7.50;99.90;;;;;;5072129;28;19954;-78
2022/12/10 12:16:05;;;;;;;;;;;7.50;99.90;;;;;;5072498;28;19908;-77
2022/12/10 12:18:31;;;;;;;;;;;7.50;99.90;;;;;;5072026;28;19915;-77
2022/12/10 12:20:58;;;;;;;;;;;7.40;99.90;;;;;;5071736;28;19913;-78
2022/12/10 12:23:26;;;;;;;;;;;7.50;99.90;;;;;;5071031;28;19966;-77
2022/12/10 12:25:54;;;;;;;;;;;7.40;99.90;;;;;;5072928;28;20446;-77
2022/12/10 12:28:38;;;;;;;;;;;7.40;99.90;;;;;;5071932;28;20010;-77
2022/12/10 12:31:27;;;;;;;;;;;7.40;99.90;;;;;;5071077;28;19952;-77
2022/12/10 12:34:01;;;;;;;;;;;7.40;99.90;;;;;;5070969;28;19947;-77
2022/12/10 12:36:29;;;;;;;;;;;7.40;99.90;;;;;;5072346;28;19912;-77
2022/12/10 12:39:13;;;;;;;;;;;7.40;99.90;;;;;;5073213;28;19913;-76
2022/12/10 12:41:48;;;;;;;;;;;7.40;99.90;;;;;;5070922;28;19908;-77
2022/12/10 12:44:32;;;;;;;;;;;7.30;99.90;;;;;;5071753;28;19920;-76
2022/12/10 12:47:18;;;;;;;;;;;7.40;99.90;;;;;;5074241;28;19912;-77
2022/12/10 12:49:44;;;;;;;;;;;7.40;99.90;;;;;;5074741;28;20007;-77
2022/12/10 12:52:18;;;;;;;;;;;7.50;99.90;;;;;;5071725;28;20015;-76
2022/12/10 12:54:44;;;;;;;;;;;7.50;99.90;;;;;;5069107;28;20342;-77
2022/12/10 12:57:15;;;;;;;;;;;7.50;99.90;;;;;;5068904;28;19920;-77
2022/12/10 12:59:41;;;;;;;;;;;7.50;99.90;;;;;;5068398;28;19928;-76
2022/12/10 13:02:25;;;;;;;;;;;7.50;99.90;;;;;;5070970;28;19961;-77
2022/12/10 13:04:51;;;;;;;;;;;7.50;99.90;;;;;;5073141;28;19920;-76
2022/12/10 13:07:20;;;;;;;;;;;7.40;99.90;;;;;;5072988;28;19917;-76
2022/12/10 13:09:49;;;;;;;;;;;7.50;99.90;;;;;;5071294;28;20294;-76
2022/12/10 13:12:14;;;;;;;;;;;7.50;99.90;;;;;;5071836;28;19954;-75
2022/12/10 13:14:51;;;;;;;;;;;7.50;99.90;;;;;;5070155;28;19913;-76
2022/12/10 13:17:33;;;;;;;;;;;7.50;99.90;;;;;;5071490;28;19923;-76
2022/12/10 13:20:18;;;;;;;;;;;7.50;99.90;;;;;;5070589;28;19940;-77
2022/12/10 13:22:54;;;;;;;;;;;7.40;99.90;;;;;;5070510;28;19917;-77
2022/12/10 13:25:36;;;;;;;;;;;7.40;99.90;;;;;;5070667;28;19916;-76
2022/12/10 13:28:16;;;;;;;;;;;7.40;99.90;;;;;;5070762;28;19961;-77
2022/12/10 13:30:41;;;;;;;;;;;7.40;99.90;;;;;;5068014;28;19926;-78
2022/12/10 13:33:16;;;;;;;;;;;7.40;99.90;;;;;;5067821;28;19912;-77
2022/12/10 13:35:48;;;;;;;;;;;7.40;99.90;;;;;;5068181;28;19961;-76
2022/12/10 13:38:24;;;;;;;;;;;7.40;99.90;;;;;;5069550;28;19951;-75
2022/12/10 13:46:26;;;;;;;;;;;7.30;99.90;;;;;;5089797;28;19926;-76
2022/12/10 13:48:53;;;;;;;;;;;7.30;99.90;;;;;;5070055;28;19924;-76
2022/12/10 13:51:19;;;;;;;;;;;7.30;99.90;;;;;;5067279;28;20355;-76
2022/12/10 13:54:05;;;;;;;;;;;7.30;99.90;;;;;;5069139;28;19939;-76
2022/12/10 13:56:41;;;;;;;;;;;7.30;99.90;;;;;;5046000;28;19962;-78
2022/12/10 13:59:10;;;;;;;;;;;7.30;99.90;;;;;;5068713;28;19920;-76
2022/12/10 14:01:59;;;;;;;;;;;7.30;99.90;;;;;;5079632;28;20514;-76
2022/12/10 14:04:43;;;;;;;;;;;7.30;99.90;;;;;;5068215;28;19971;-77
2022/12/10 14:07:10;;;;;;;;;;;7.30;99.90;;;;;;5068394;28;19924;-76
2022/12/10 14:09:40;;;;;;;;;;;7.30;99.90;;;;;;5069745;28;19919;-77
2022/12/10 14:12:09;;;;;;;;;;;7.30;99.90;;;;;;5068749;28;20400;-77
2022/12/10 14:14:55;;;;;;;;;;;7.30;99.90;;;;;;5067895;28;19917;-77
2022/12/10 14:17:23;;;;;;;;;;;7.30;99.90;;;;;;5068668;28;20317;-76
2022/12/10 14:19:53;;;;;;;;;;;7.30;99.90;;;;;;5069190;28;19912;-77
2022/12/10 14:22:21;;;;;;;;;;;7.30;99.90;;;;;;5068199;28;20299;-76
2022/12/10 14:24:48;;;;;;;;;;;7.30;99.90;;;;;;5070213;28;19923;-76
2022/12/10 14:27:23;;;;;;;;;;;7.30;99.90;;;;;;5067809;28;19958;-76
2022/12/10 14:29:50;;;;;;;;;;;7.30;99.90;;;;;;5068878;28;19913;-76
2022/12/10 14:32:29;;;;;;;;;;;7.30;99.90;;;;;;5068878;28;19913;-76
2022/12/10 14:34:57;;;;;;;;;;;7.30;99.90;;;;;;5069354;28;19961;-76
2022/12/10 14:37:27;;;;;;;;;;;7.30;99.90;;;;;;5069923;28;20433;-76
2022/12/10 14:39:53;;;;;;;;;;;7.30;99.90;;;;;;5068609;28;19912;-77
2022/12/10 14:42:19;;;;;;;;;;;7.20;99.90;;;;;;5068781;28;19908;-76
2022/12/10 14:44:45;;;;;;;;;;;7.20;99.90;;;;;;5069949;28;19966;-76
2022/12/10 14:47:15;;;;;;;;;;;7.20;99.90;;;;;;5068251;28;19909;-76
2022/12/10 14:49:42;;;;;;;;;;;7.20;99.90;;;;;;5070548;28;20161;-76
2022/12/10 14:52:10;;;;;;;;;;;7.20;99.90;;;;;;5070755;28;19917;-76